Time;durP1;ratioP1;P1;durP2;ratioP2;P2;SDS_P1;SDS_P2;PMS_P1;PMS_P2;Temp;Humidity;BMP_temperature;BMP_pressure;BME280_temperature;BME280_humidity;BME280_pressure;Samples;Min_cycle;Max_cycle;Signal;HPM_P1;HPM_P2
2021/01/12 00:01:45;;;;;;;20.67;5.43;;;;;;;6.25;95.40;100885.13;5028712;28;20034;-80
2021/01/12 00:04:11;;;;;;;12.60;4.93;;;;;;;6.17;95.35;100887.31;5024163;28;20034;-81
2021/01/12 00:06:37;;;;;;;19.50;4.97;;;;;;;6.19;95.37;100872.13;5025200;28;20023;-82
2021/01/12 00:09:03;;;;;;;;;;;;;;;6.17;95.32;100871.16;5029495;28;20032;-81
2021/01/12 00:11:29;;;;;;;16.67;4.40;;;;;;;6.13;95.89;100859.94;5026757;28;19920;-81
2021/01/12 00:13:54;;;;;;;21.20;5.50;;;;;;;6.11;95.65;100864.13;5027064;28;20026;-79
2021/01/12 00:16:20;;;;;;;14.43;4.90;;;;;;;6.15;95.56;100848.13;5028608;28;20291;-81
2021/01/12 00:18:46;;;;;;;;;;;;;;;6.14;95.56;100848.94;5025074;28;20025;-79
2021/01/12 00:21:11;;;;;;;15.57;4.53;;;;;;;6.15;95.66;100853.22;5028018;28;19913;-79
2021/01/12 00:23:36;;;;;;;17.57;4.43;;;;;;;6.19;95.34;100854.25;5025217;28;20037;-82
2021/01/12 00:26:05;;;;;;;18.63;4.93;;;;;;;6.16;95.64;100834.56;5024267;28;20033;-81
2021/01/12 00:28:31;;;;;;;15.50;4.30;;;;;;;6.18;95.68;100832.13;5023654;28;20036;-81
2021/01/12 00:30:56;;;;;;;18.33;4.57;;;;;;;6.15;95.54;100822.63;5025514;28;20554;-79
2021/01/12 00:33:21;;;;;;;23.27;5.00;;;;;;;6.19;95.67;100816.88;5027820;28;20283;-81
2021/01/12 00:35:46;;;;;;;15.83;4.90;;;;;;;6.11;95.63;100796.94;5024635;28;20371;-81
2021/01/12 00:38:12;;;;;;;20.83;4.90;;;;;;;6.13;95.69;100808.94;5024168;28;20276;-81
2021/01/12 00:40:37;;;;;;;17.10;4.20;;;;;;;6.16;95.87;100814.16;5028851;28;20104;-81
2021/01/12 00:43:02;;;;;;;24.37;4.53;;;;;;;6.18;95.66;100804.06;5025719;28;20407;-82
2021/01/12 00:45:28;;;;;;;18.45;4.63;;;;;;;6.18;95.89;100794.72;5025061;28;20368;-82
2021/01/12 00:47:53;;;;;;;21.57;4.97;;;;;;;6.17;95.59;100794.63;5025854;28;20029;-82
2021/01/12 00:50:18;;;;;;;19.70;4.63;;;;;;;6.20;95.93;100795.66;5025026;28;20285;-80
2021/01/12 00:52:43;;;;;;;14.60;3.80;;;;;;;6.20;95.66;100782.91;5024345;28;20040;-79
2021/01/12 00:55:09;;;;;;;26.40;5.83;;;;;;;6.25;95.71;100783.09;5031600;28;20260;-81
2021/01/12 00:57:34;;;;;;;16.25;3.72;;;;;;;6.25;95.37;100777.97;5032686;28;20025;-81
2021/01/12 00:59:59;;;;;;;28.00;5.20;;;;;;;6.20;95.70;100777.81;5031006;28;20038;-82
2021/01/12 01:02:24;;;;;;;18.95;5.10;;;;;;;6.20;95.86;100774.38;5030551;28;20037;-82
2021/01/12 01:04:50;;;;;;;20.17;4.90;;;;;;;6.28;95.63;100777.22;5031479;28;20037;-81
2021/01/12 01:07:16;;;;;;;20.63;4.77;;;;;;;6.22;95.57;100767.66;5030370;28;20886;-80
2021/01/12 01:09:42;;;;;;;22.83;5.10;;;;;;;6.26;95.38;100753.34;5030690;28;20035;-82
2021/01/12 01:12:07;;;;;;;24.30;5.23;;;;;;;6.30;95.63;100760.31;5028490;28;20034;-81
2021/01/12 01:14:32;;;;;;;21.27;5.53;;;;;;;6.28;95.74;100767.03;5032684;28;20275;-81
2021/01/12 01:16:57;;;;;;;16.20;5.10;;;;;;;6.33;95.55;100748.53;5028126;28;20041;-81
2021/01/12 01:19:23;;;;;;;18.08;4.82;;;;;;;6.38;95.43;100753.81;5026077;28;20864;-80
2021/01/12 01:21:48;;;;;;;23.60;4.43;;;;;;;6.35;95.50;100741.81;5026472;28;20069;-83
2021/01/12 01:24:14;;;;;;;16.95;4.03;;;;;;;6.42;95.75;100740.34;5027300;28;20032;-79
2021/01/12 01:26:39;;;;;;;19.23;4.63;;;;;;;6.37;95.61;100746.97;5027294;28;20018;-81
2021/01/12 01:29:05;;;;;;;28.03;5.63;;;;;;;6.34;95.75;100739.19;5028144;28;20025;-82
2021/01/12 01:31:35;;;;;;;15.87;4.47;;;;;;;6.37;95.68;100736.75;5025944;28;20322;-80
2021/01/12 01:34:00;;;;;;;26.00;6.27;;;;;;;6.41;95.82;100730.97;5027031;28;20704;-81
2021/01/12 01:36:25;;;;;;;27.52;5.65;;;;;;;6.42;95.75;100730.16;5023949;28;20109;-80
2021/01/12 01:38:50;;;;;;;29.77;5.50;;;;;;;6.43;95.88;100731.88;5025253;28;20399;-81
2021/01/12 01:41:16;;;;;;;25.30;5.67;;;;;;;6.39;96.06;100727.47;5026071;28;20264;-81
2021/01/12 01:43:41;;;;;;;29.93;6.73;;;;;;;6.40;95.90;100727.53;5025843;28;20068;-80
2021/01/12 01:46:07;;;;;;;20.40;5.40;;;;;;;6.42;95.97;100723.38;5027993;28;20271;-81
2021/01/12 01:48:34;;;;;;;30.10;5.88;;;;;;;6.44;96.25;100723.41;5023470;28;20501;-80
2021/01/12 01:51:02;;;;;;;23.47;5.13;;;;;;;6.53;95.96;100728.91;5025373;28;20084;-80
2021/01/12 01:53:27;;;;;;;17.67;4.13;;;;;;;6.47;96.03;100720.97;5023398;28;20033;-81
2021/01/12 01:55:58;;;;;;;22.05;4.82;;;;;;;6.46;96.12;100726.91;5025409;28;20403;-81
2021/01/12 01:58:24;;;;;;;17.80;4.20;;;;;;;6.48;96.01;100721.03;5026819;28;20028;-81
2021/01/12 02:00:49;;;;;;;15.07;5.00;;;;;;;6.52;96.16;100717.81;5023074;28;20105;-82
2021/01/12 02:03:30;;;;;;;22.20;4.28;;;;;;;6.52;96.44;100711.84;5024854;28;20025;-80
2021/01/12 02:06:06;;;;;;;21.93;3.43;;;;;;;6.57;95.82;100710.34;5024324;28;20018;-81
2021/01/12 02:08:53;;;;;;;19.52;4.53;;;;;;;6.61;96.10;100701.09;5022341;28;20109;-79
2021/01/12 02:11:20;;;;;;;18.35;3.75;;;;;;;6.67;96.12;100696.22;5042513;28;20064;-79
2021/01/12 02:13:50;;;;;;;17.37;3.47;;;;;;;6.66;96.07;100695.34;5025765;28;20033;-80
2021/01/12 02:16:16;;;;;;;13.53;2.97;;;;;;;6.72;96.16;100695.56;5030761;28;20025;-81
2021/01/12 02:18:41;;;;;;;13.68;2.97;;;;;;;6.72;95.98;100695.56;5029574;28;20064;-80
2021/01/12 02:21:07;;;;;;;9.80;2.90;;;;;;;6.74;96.34;100688.84;5024020;28;20029;-80
2021/01/12 02:23:48;;;;;;;15.57;2.97;;;;;;;6.72;96.28;100690.47;5028146;28;20021;-81
2021/01/12 02:26:14;;;;;;;10.27;2.57;;;;;;;6.81;95.90;100679.72;5043501;28;20029;-80
2021/01/12 02:28:39;;;;;;;8.77;2.63;;;;;;;6.85;95.86;100677.34;5027223;28;20026;-81
2021/01/12 02:31:04;;;;;;;7.63;2.47;;;;;;;6.86;96.16;100673.13;5024244;28;20027;-80
2021/01/12 02:33:30;;;;;;;10.80;2.23;;;;;;;6.89;95.93;100675.78;5026619;28;20092;-80
2021/01/12 02:35:58;;;;;;;10.00;2.35;;;;;;;6.92;95.89;100667.34;5025596;28;20105;-83
2021/01/12 02:38:23;;;;;;;13.03;2.73;;;;;;;6.96;95.76;100658.97;5050691;28;20021;-80
2021/01/12 02:40:49;;;;;;;14.93;2.92;;;;;;;6.91;95.69;100660.50;5039006;28;20053;-81
2021/01/12 02:43:14;;;;;;;11.25;2.22;;;;;;;6.95;95.79;100655.56;5034766;28;20018;-80
2021/01/12 02:45:39;;;;;;;6.67;2.20;;;;;;;6.98;95.81;100657.34;5034909;28;20025;-80
2021/01/12 02:48:05;;;;;;;11.38;2.13;;;;;;;6.96;95.88;100651.31;5032844;28;20033;-81
2021/01/12 02:50:30;;;;;;;10.70;2.33;;;;;;;7.00;95.49;100643.81;5032514;28;20544;-81
2021/01/12 02:52:55;;;;;;;16.77;2.90;;;;;;;6.99;95.66;100651.41;5045588;28;20044;-80
2021/01/12 02:55:21;;;;;;;12.23;2.47;;;;;;;7.01;95.55;100637.03;5031069;28;20045;-81
2021/01/12 02:57:46;;;;;;;8.40;2.20;;;;;;;7.06;95.38;100625.28;5028787;28;20116;-82
2021/01/12 03:00:15;;;;;;;10.18;2.10;;;;;;;7.06;95.39;100635.50;5046390;28;20546;-80
2021/01/12 03:02:40;;;;;;;12.83;2.70;;;;;;;7.04;95.43;100620.09;5031319;28;20491;-80
2021/01/12 03:05:07;;;;;;;15.77;3.15;;;;;;;7.03;95.54;100627.72;5030225;28;20101;-80
2021/01/12 03:07:33;;;;;;;13.67;2.60;;;;;;;7.02;95.39;100620.88;5031215;28;20026;-80
2021/01/12 03:09:58;;;;;;;16.27;2.97;;;;;;;7.07;95.77;100615.09;5027320;28;20032;-81
2021/01/12 03:12:24;;;;;;;15.43;3.05;;;;;;;7.07;95.40;100601.47;5027635;28;20084;-81
2021/01/12 03:14:50;;;;;;;15.52;2.42;;;;;;;7.07;95.51;100607.44;5029889;28;20569;-81
2021/01/12 03:17:15;;;;;;;11.35;2.88;;;;;;;7.05;95.41;100598.00;5028426;28;20030;-79
2021/01/12 03:19:41;;;;;;;14.57;2.40;;;;;;;7.12;95.08;100605.03;5024702;28;20029;-79
2021/01/12 03:22:07;;;;;;;;;;;;;;;7.08;95.50;100603.19;5025682;28;20026;-81
2021/01/12 03:24:32;;;;;;;12.00;2.67;;;;;;;7.11;95.32;100588.84;5027240;28;19920;-79
2021/01/12 03:26:58;;;;;;;15.87;2.77;;;;;;;7.11;95.29;100586.28;5029070;28;20072;-79
2021/01/12 03:29:23;;;;;;;11.98;3.10;;;;;;;7.14;95.36;100590.63;5023819;28;20261;-80
2021/01/12 03:31:48;;;;;;;12.10;2.50;;;;;;;7.11;95.43;100578.63;5026077;28;20022;-79
2021/01/12 03:34:14;;;;;;;12.55;3.17;;;;;;;7.10;95.44;100579.44;5024371;28;20056;-80
2021/01/12 03:36:40;;;;;;;13.00;2.80;;;;;;;7.14;95.09;100583.84;5025127;28;20484;-80
2021/01/12 03:39:06;;;;;;;9.15;3.20;;;;;;;7.18;95.46;100577.16;5026189;28;20033;-80
2021/01/12 03:41:34;;;;;;;14.75;3.35;;;;;;;7.16;95.26;100574.56;5028192;28;20029;-79
2021/01/12 03:44:00;;;;;;;13.30;3.13;;;;;;;7.13;95.25;100573.56;5025855;28;20079;-81
2021/01/12 03:46:26;;;;;;;11.03;2.77;;;;;;;7.15;95.23;100572.84;5025002;28;20025;-81
2021/01/12 03:48:52;;;;;;;15.80;3.25;;;;;;;7.13;95.34;100565.91;5026287;28;20718;-83
2021/01/12 03:51:21;;;;;;;16.23;3.47;;;;;;;7.17;95.52;100553.31;5024928;28;20049;-82
2021/01/12 03:53:46;;;;;;;16.17;3.20;;;;;;;7.18;95.20;100534.59;5024808;28;20116;-79
2021/01/12 03:56:13;;;;;;;12.85;3.53;;;;;;;7.14;95.34;100548.06;5025849;28;20455;-81
2021/01/12 03:58:39;;;;;;;15.47;3.80;;;;;;;7.20;95.29;100547.44;5022881;28;20529;-81
2021/01/12 04:01:04;;;;;;;15.20;3.72;;;;;;;7.21;95.31;100536.41;5024308;28;20030;-80
2021/01/12 04:03:30;;;;;;;8.47;3.50;;;;;;;7.21;95.24;100538.94;5022581;28;20041;-82
2021/01/12 04:05:55;;;;;;;14.43;3.67;;;;;;;7.24;95.03;100536.50;5023849;28;20113;-81
2021/01/12 04:08:20;;;;;;;9.87;3.40;;;;;;;7.21;95.09;100528.72;5022743;28;20647;-80
2021/01/12 04:10:45;;;;;;;15.50;2.97;;;;;;;7.25;95.20;100524.59;5023990;28;20112;-81
2021/01/12 04:13:11;;;;;;;11.13;3.55;;;;;;;7.29;95.26;100511.94;5023745;28;20033;-79
2021/01/12 04:15:36;;;;;;;15.13;3.30;;;;;;;7.26;95.24;100516.97;5025034;28;20327;-83
2021/01/12 04:18:01;;;;;;;16.90;3.30;;;;;;;7.28;95.25;100520.44;5022984;28;20292;-80
2021/01/12 04:20:26;;;;;;;8.90;3.17;;;;;;;7.33;94.90;100518.03;5020052;28;20030;-81
2021/01/12 04:22:52;;;;;;;15.47;3.37;;;;;;;7.29;95.29;100522.16;5023090;28;20260;-79
2021/01/12 04:25:18;;;;;;;14.80;4.77;;;;;;;7.32;95.04;100517.16;5028517;28;20300;-81
2021/01/12 04:27:43;;;;;;;15.88;3.58;;;;;;;7.30;95.05;100513.69;5032482;28;20268;-82
2021/01/12 04:30:09;;;;;;;20.45;3.65;;;;;;;7.30;95.21;100503.47;5032597;28;20014;-82
2021/01/12 04:32:34;;;;;;;15.88;3.75;;;;;;;7.32;95.20;100500.97;5028870;28;20404;-82
2021/01/12 04:34:59;;;;;;;15.03;2.90;;;;;;;7.35;95.04;100501.03;5027075;28;20022;-81
2021/01/12 04:37:25;;;;;;;17.83;3.63;;;;;;;7.30;95.27;100500.91;5029428;28;20056;-84
2021/01/12 04:39:50;;;;;;;15.45;3.53;;;;;;;7.31;95.42;100496.66;5029770;28;20033;-81
2021/01/12 04:42:15;;;;;;;15.23;3.30;;;;;;;7.35;95.35;100489.13;5030175;28;20502;-80
2021/01/12 04:44:41;;;;;;;14.27;3.08;;;;;;;7.31;95.35;100487.31;5030261;28;20037;-81
2021/01/12 04:47:06;;;;;;;16.93;3.20;;;;;;;7.35;95.14;100480.59;5025635;28;20025;-80
2021/01/12 04:49:33;;;;;;;16.10;2.30;;;;;;;7.36;95.13;100464.44;5024649;28;20116;-80
2021/01/12 04:51:58;;;;;;;12.23;2.33;;;;;;;7.35;95.24;100472.94;5025383;28;20406;-79
2021/01/12 04:54:34;;;;;;;19.17;2.75;;;;;;;7.37;95.18;100459.38;5023383;28;20053;-78
2021/01/12 04:56:59;;;;;;;12.27;2.50;;;;;;;7.37;95.25;100463.63;5039486;28;20018;-80
2021/01/12 04:59:29;;;;;;;8.77;2.17;;;;;;;7.45;95.05;100463.03;5024239;28;20025;-79
2021/01/12 05:01:55;;;;;;;12.47;2.80;;;;;;;7.47;94.88;100458.84;5023923;28;20072;-80
2021/01/12 05:04:21;;;;;;;15.47;2.67;;;;;;;7.46;95.17;100464.78;5026970;28;20030;-81
2021/01/12 05:06:46;;;;;;;12.40;1.88;;;;;;;7.46;95.28;100453.69;5024814;28;20124;-81
2021/01/12 05:09:19;;;;;;;10.35;2.17;;;;;;;7.51;95.04;100464.06;5022460;28;20025;-80
2021/01/12 05:11:45;;;;;;;11.17;4.27;;;;;;;7.51;95.27;100461.50;5025676;28;20036;-81
2021/01/12 05:14:13;;;;;;;16.43;2.93;;;;;;;7.51;94.89;100462.38;5025767;28;20025;-81
2021/01/12 05:16:46;;;;;;;20.30;2.57;;;;;;;7.46;95.14;100462.22;5024194;28;20036;-80
2021/01/12 05:19:18;;;;;;;17.27;2.40;;;;;;;7.47;95.37;100456.28;5024136;28;20026;-79
2021/01/12 05:21:45;;;;;;;14.17;2.70;;;;;;;7.53;95.30;100449.63;5025834;28;20026;-81
2021/01/12 05:24:11;;;;;;;14.17;2.43;;;;;;;7.53;95.33;100455.63;5020286;28;20088;-80
2021/01/12 05:26:38;;;;;;;14.57;3.07;;;;;;;7.55;94.77;100448.00;5020655;28;20079;-80
2021/01/12 05:29:03;;;;;;;;;;;;;;;7.57;95.09;100460.00;5019620;28;20017;-81
2021/01/12 05:31:29;;;;;;;9.03;2.23;;;;;;;7.56;95.33;100459.94;5023459;28;19920;-78
2021/01/12 05:33:55;;;;;;;12.43;3.30;;;;;;;7.55;95.31;100479.53;5021503;28;20033;-83
2021/01/12 05:36:20;;;;;;;9.85;1.58;;;;;;;7.46;93.65;100474.13;5021915;28;20056;-83
2021/01/12 05:38:49;;;;;;;8.63;1.83;;;;;;;7.43;93.62;100480.00;5023678;28;20076;-82
2021/01/12 05:41:15;;;;;;;6.57;1.17;;;;;;;7.39;93.80;100477.31;5024555;28;20029;-83
2021/01/12 05:43:46;;;;;;;7.32;1.25;;;;;;;7.35;93.73;100478.91;5022516;28;20057;-80
2021/01/12 05:46:14;;;;;;;9.87;1.40;;;;;;;7.36;93.65;100493.44;5027226;28;20036;-79
2021/01/12 05:48:41;;;;;;;5.03;1.03;;;;;;;7.31;93.35;100484.75;5025758;28;20479;-80
2021/01/12 05:51:09;;;;;;;7.13;1.00;;;;;;;7.26;93.24;100483.75;5027588;28;20025;-81
2021/01/12 05:53:46;;;;;;;7.53;1.30;;;;;;;7.23;93.00;100475.13;5027770;28;20396;-80
2021/01/12 05:56:22;;;;;;;7.03;0.87;;;;;;;7.21;93.22;100477.63;5040854;28;20034;-78
2021/01/12 05:58:50;;;;;;;8.57;1.47;;;;;;;7.18;93.86;100478.41;5027518;28;20025;-82
2021/01/12 06:01:44;;;;;;;10.27;1.97;;;;;;;7.16;93.69;100482.59;5026853;28;20088;-80
2021/01/12 06:04:12;;;;;;;11.50;1.30;;;;;;;7.17;94.09;100483.47;5020039;28;20083;-81
2021/01/12 06:06:38;;;;;;;10.37;2.00;;;;;;;7.15;94.07;100475.75;5026342;28;20464;-80
2021/01/12 06:09:06;;;;;;;7.80;1.43;;;;;;;7.15;94.08;100482.53;5025953;28;20101;-80
2021/01/12 06:11:33;;;;;;;10.27;1.40;;;;;;;7.13;94.13;100489.28;5028223;28;20025;-80
2021/01/12 06:14:07;;;;;;;14.57;1.87;;;;;;;7.12;94.22;100487.53;5032110;28;20022;-81
2021/01/12 06:16:35;;;;;;;8.50;1.40;;;;;;;7.10;94.03;100489.19;5032658;28;20033;-81
2021/01/12 06:19:06;;;;;;;11.73;1.30;;;;;;;7.10;94.25;100495.16;5031639;28;20088;-80
2021/01/12 06:21:44;;;;;;;14.23;1.83;;;;;;;7.09;94.26;100492.56;5027927;28;20499;-79
2021/01/12 06:24:10;;;;;;;9.70;1.50;;;;;;;7.08;94.27;100494.25;5046238;28;20035;-81
2021/01/12 06:26:42;;;;;;;6.63;1.13;;;;;;;7.10;94.31;100495.16;5029989;28;20049;-79
2021/01/12 06:29:07;;;;;;;11.27;1.43;;;;;;;7.04;94.66;100496.66;5032093;28;20025;-80
2021/01/12 06:31:44;;;;;;;16.55;2.00;;;;;;;7.08;94.32;100498.47;5041488;28;20054;-78
2021/01/12 06:34:18;;;;;;;13.70;1.10;;;;;;;7.09;94.61;100507.88;5029685;28;20068;-82
2021/01/12 06:36:51;;;;;;;8.67;1.30;;;;;;;7.02;94.57;100499.16;5030401;28;20025;-78
2021/01/12 06:39:23;;;;;;;6.47;1.17;;;;;;;7.04;94.33;100504.31;5029799;28;20420;-80
2021/01/12 06:41:52;;;;;;;4.23;0.73;;;;;;;7.01;94.18;100517.00;5032711;28;20029;-79
2021/01/12 06:44:25;;;;;;;7.23;1.30;;;;;;;6.98;93.66;100514.34;5031467;28;20103;-79
2021/01/12 06:46:53;;;;;;;4.90;0.90;;;;;;;6.96;93.49;100518.53;5029488;28;20487;-80
2021/01/12 06:49:23;;;;;;;6.27;1.07;;;;;;;6.95;93.54;100524.47;5028481;28;20499;-79
2021/01/12 06:52:02;;;;;;;7.53;0.83;;;;;;;6.94;93.33;100530.38;5028228;28;20052;-78
2021/01/12 06:54:48;;;;;;;8.13;1.60;;;;;;;6.91;93.93;100522.63;5027423;28;20068;-79
2021/01/12 06:57:23;;;;;;;10.30;2.90;;;;;;;6.85;94.28;100531.81;5041712;28;20025;-81
2021/01/12 06:59:55;;;;;;;10.03;1.50;;;;;;;6.81;94.19;100541.84;5028302;28;20030;-80
2021/01/12 07:02:30;;;;;;;11.70;1.83;;;;;;;6.77;94.31;100534.91;5024656;28;20026;-79
2021/01/12 07:05:05;;;;;;;15.27;1.13;;;;;;;6.73;94.69;100544.16;5025788;28;20029;-79
2021/01/12 07:07:32;;;;;;;11.33;1.30;;;;;;;6.72;94.67;100542.41;5041876;28;20033;-79
2021/01/12 07:09:59;;;;;;;6.83;1.13;;;;;;;6.70;94.31;100541.50;5027975;28;20488;-80
2021/01/12 07:12:27;;;;;;;12.80;1.20;;;;;;;6.71;94.15;100550.03;5026351;28;20532;-80
2021/01/12 07:14:58;;;;;;;11.17;1.60;;;;;;;6.73;94.41;100558.59;5029516;28;20085;-80
2021/01/12 07:17:25;;;;;;;9.80;1.50;;;;;;;6.73;94.32;100554.34;5027859;28;20542;-80
2021/01/12 07:20:02;;;;;;;6.40;1.53;;;;;;;6.77;94.19;100551.09;5024801;28;20021;-79
2021/01/12 07:22:31;;;;;;;6.07;1.37;;;;;;;6.78;94.21;100562.16;5024814;28;20037;-79
2021/01/12 07:24:57;;;;;;;14.80;1.90;;;;;;;6.77;94.49;100558.75;5020687;28;20491;-78
2021/01/12 07:27:22;;;;;;;7.20;2.35;;;;;;;6.75;94.42;100565.50;5023509;28;20024;-78
2021/01/12 07:29:51;;;;;;;12.13;1.80;;;;;;;6.77;94.12;100568.97;5022095;28;20026;-78
2021/01/12 07:32:30;;;;;;;11.63;2.10;;;;;;;6.79;93.56;100562.22;5024029;28;20033;-79
2021/01/12 07:34:59;;;;;;;8.57;1.63;;;;;;;6.79;93.58;100569.88;5025527;28;20017;-77
2021/01/12 07:37:30;;;;;;;14.63;2.03;;;;;;;6.80;93.31;100573.31;5023904;28;20447;-80
2021/01/12 07:39:56;;;;;;;12.13;2.10;;;;;;;6.75;93.78;100575.69;5023842;28;20034;-77
2021/01/12 07:42:21;;;;;;;8.52;1.92;;;;;;;6.80;93.48;100584.38;5020819;28;20076;-76
2021/01/12 07:44:46;;;;;;;10.52;2.17;;;;;;;6.79;93.58;100597.97;5022937;28;20037;-77
2021/01/12 07:47:13;;;;;;;7.07;1.43;;;;;;;6.78;93.66;100591.13;5024237;28;20040;-78
2021/01/12 07:49:39;;;;;;;9.20;2.30;;;;;;;6.78;93.29;100597.91;5023645;28;20355;-77
2021/01/12 07:52:05;;;;;;;14.20;1.33;;;;;;;6.74;92.97;100622.47;5025732;28;20044;-78
2021/01/12 07:54:33;;;;;;;7.32;1.00;;;;;;;6.68;92.75;100635.00;5024333;28;20026;-77
2021/01/12 07:56:59;;;;;;;6.20;0.93;;;;;;;6.60;92.39;100639.00;5017250;28;20056;-77
2021/01/12 07:59:25;;;;;;;9.00;1.42;;;;;;;6.51;92.35;100647.19;5040242;28;20033;-77
2021/01/12 08:01:51;;;;;;;7.50;1.27;;;;;;;6.48;92.53;100654.69;5023615;28;20033;-78
2021/01/12 08:04:16;;;;;;;7.53;1.35;;;;;;;6.41;92.35;100672.28;5024508;28;20080;-78
2021/01/12 08:06:43;;;;;;;9.38;1.92;;;;;;;6.35;93.14;100672.94;5032594;28;20087;-78
2021/01/12 08:09:09;;;;;;;5.80;1.60;;;;;;;6.32;93.26;100682.16;5021918;28;20080;-76
2021/01/12 08:11:37;;;;;;;8.32;1.50;;;;;;;6.27;93.25;100686.22;5015074;28;20032;-78
2021/01/12 08:14:06;;;;;;;9.60;2.33;;;;;;;6.18;93.11;100689.28;5028607;28;20064;-79
2021/01/12 08:16:33;;;;;;;8.10;1.80;;;;;;;6.11;93.04;100692.38;5030043;28;20045;-78
2021/01/12 08:18:58;;;;;;;8.17;1.63;;;;;;;6.07;93.58;100704.16;5020818;28;20434;-77
2021/01/12 08:21:24;;;;;;;8.82;1.83;;;;;;;6.05;93.42;100713.41;5020636;28;20021;-77
2021/01/12 08:23:59;;;;;;;5.75;1.42;;;;;;;5.99;93.63;100718.28;5016347;28;20514;-78
2021/01/12 08:26:25;;;;;;;5.83;1.57;;;;;;;5.93;93.57;100721.47;5017100;28;20029;-77
2021/01/12 08:28:51;;;;;;;7.57;1.80;;;;;;;5.86;93.44;100732.19;5024157;28;20033;-77
2021/01/12 08:31:17;;;;;;;13.73;2.33;;;;;;;5.85;93.65;100742.28;5015331;28;20048;-77
2021/01/12 08:33:45;;;;;;;8.70;2.08;;;;;;;5.83;93.51;100733.72;5024395;28;20785;-77
2021/01/12 08:36:18;;;;;;;9.30;1.00;;;;;;;5.77;93.05;100741.13;5025511;28;20376;-77
2021/01/12 08:38:48;;;;;;;15.27;1.60;;;;;;;5.77;92.98;100744.53;5020582;28;20029;-75
2021/01/12 08:41:14;;;;;;;11.97;1.00;;;;;;;5.76;92.32;100754.66;5023355;28;20025;-79
2021/01/12 08:43:41;;;;;;;11.77;1.00;;;;;;;5.81;92.42;100758.28;5022282;28;20448;-77
2021/01/12 08:46:07;;;;;;;8.90;1.07;;;;;;;5.95;92.01;100766.53;5040501;28;20044;-80
2021/01/12 08:48:32;;;;;;;12.73;1.52;;;;;;;5.98;91.27;100774.31;5022430;28;20385;-77
2021/01/12 08:50:58;;;;;;;9.88;1.25;;;;;;;5.96;91.22;100776.81;5023487;28;20021;-78
2021/01/12 08:53:31;;;;;;;9.85;1.13;;;;;;;5.99;91.31;100783.69;5023363;28;20025;-79
2021/01/12 08:56:06;;;;;;;7.13;1.00;;;;;;;6.04;90.93;100783.06;5025175;28;20021;-78
2021/01/12 08:58:32;;;;;;;7.22;0.68;;;;;;;6.06;90.48;100781.47;5022426;28;20031;-78
2021/01/12 09:00:59;;;;;;;12.75;1.10;;;;;;;6.01;89.71;100782.09;5025751;28;20116;-78
2021/01/12 09:03:26;;;;;;;7.87;0.77;;;;;;;6.02;90.50;100788.91;5022036;28;20480;-79
2021/01/12 09:05:53;;;;;;;13.13;1.50;;;;;;;6.05;90.24;100800.13;5021527;28;20017;-78
2021/01/12 09:08:21;;;;;;;9.57;1.83;;;;;;;6.12;89.74;100802.09;5039259;28;20024;-80
2021/01/12 09:10:46;;;;;;;7.23;1.10;;;;;;;6.13;90.07;100808.94;5022670;28;20022;-77
2021/01/12 09:13:12;;;;;;;8.63;0.90;;;;;;;6.13;89.60;100819.16;5023231;28;20061;-78
2021/01/12 09:15:40;;;;;;;9.77;0.77;;;;;;;6.11;90.03;100820.75;5023950;28;20038;-79
2021/01/12 09:18:19;;;;;;;9.20;0.83;;;;;;;6.06;89.90;100822.25;5022254;28;20026;-78
2021/01/12 09:20:56;;;;;;;7.70;1.10;;;;;;;6.06;89.83;100819.72;5024533;28;20061;-80
2021/01/12 09:23:22;;;;;;;;;;;;;;;6.04;89.72;100834.06;5022051;28;20025;-79
2021/01/12 09:26:01;;;;;;;7.23;1.10;;;;;;;6.03;87.73;100836.56;5025272;28;20280;-81
2021/01/12 09:28:37;;;;;;;7.00;0.67;;;;;;;6.06;88.16;100837.56;5021569;28;20033;-79
2021/01/12 09:31:04;;;;;;;9.00;0.70;;;;;;;6.04;87.68;100851.94;5020640;28;20026;-80
2021/01/12 09:33:29;;;;;;;9.13;1.17;;;;;;;6.11;88.40;100853.03;5021667;28;20029;-78
2021/01/12 09:36:15;;;;;;;10.07;0.93;;;;;;;6.16;87.85;100854.09;5019789;28;20548;-81
2021/01/12 09:38:41;;;;;;;5.13;0.90;;;;;;;6.09;88.41;100860.63;5022765;28;20017;-81
2021/01/12 09:41:07;;;;;;;13.23;1.20;;;;;;;6.01;88.83;100867.09;5021383;28;20056;-80
2021/01/12 09:43:33;;;;;;;;;;;;;;;5.94;89.74;100880.41;5024996;28;20025;-80
2021/01/12 09:45:59;;;;;;;9.10;1.20;;;;;;;5.73;90.94;100887.06;5028089;28;19920;-80
2021/01/12 09:48:25;;;;;;;12.18;1.40;;;;;;;5.60;90.93;100890.78;5029398;28;20026;-80
2021/01/12 09:50:51;;;;;;;8.13;1.23;;;;;;;5.53;91.10;100897.28;5029064;28;20057;-81
2021/01/12 09:53:16;;;;;;;8.27;2.03;;;;;;;5.49;91.46;100907.25;5026908;28;20120;-80
2021/01/12 09:55:42;;;;;;;5.90;0.82;;;;;;;5.43;90.74;100902.75;5026955;28;20430;-80
2021/01/12 09:58:07;;;;;;;12.60;1.10;;;;;;;5.39;90.36;100916.16;5027809;28;20081;-80
2021/01/12 10:00:33;;;;;;;17.48;1.27;;;;;;;5.41;90.89;100923.88;5028871;28;20022;-80
2021/01/12 10:02:58;;;;;;;6.93;0.97;;;;;;;5.46;91.31;100928.34;5026890;28;20026;-81
2021/01/12 10:05:23;;;;;;;14.97;2.40;;;;;;;5.58;91.10;100934.03;5028969;28;20345;-79
2021/01/12 10:07:48;;;;;;;11.77;1.48;;;;;;;5.79;91.04;100944.28;5026041;28;20035;-80
2021/01/12 10:10:14;;;;;;;8.57;1.23;;;;;;;5.91;89.33;100949.09;5027987;28;20029;-80
2021/01/12 10:12:39;;;;;;;5.43;1.17;;;;;;;5.99;88.83;100952.84;5025543;28;20279;-79
2021/01/12 10:15:05;;;;;;;9.97;0.97;;;;;;;5.98;88.62;100956.22;5023809;28;20064;-80
2021/01/12 10:17:30;;;;;;;3.97;0.98;;;;;;;6.06;87.80;100952.31;5025620;28;20044;-79
2021/01/12 10:19:55;;;;;;;9.90;1.10;;;;;;;6.16;87.33;100957.00;5023114;28;20456;-79
2021/01/12 10:22:21;;;;;;;6.80;0.73;;;;;;;7.08;85.02;100961.66;5023509;28;20276;-79
2021/01/12 10:24:46;;;;;;;4.55;0.70;;;;;;;8.63;79.78;100955.41;5019570;28;20034;-80
2021/01/12 10:27:11;;;;;;;5.70;0.90;;;;;;;9.04;74.81;100965.31;5020143;28;20116;-80
2021/01/12 10:29:37;;;;;;;9.32;1.17;;;;;;;8.36;76.87;100970.72;5024918;28;20279;-80
2021/01/12 10:32:02;;;;;;;6.30;0.47;;;;;;;8.91;76.64;100967.44;5026602;28;20037;-79
2021/01/12 10:34:28;;;;;;;6.53;0.83;;;;;;;8.77;76.35;100978.91;5025908;28;20037;-79
2021/01/12 10:36:53;;;;;;;8.93;1.17;;;;;;;7.94;76.79;100981.13;5026622;28;20277;-79
2021/01/12 10:39:19;;;;;;;4.57;0.57;;;;;;;6.97;77.17;100973.16;5024988;28;20295;-79
2021/01/12 10:41:44;;;;;;;7.47;1.00;;;;;;;6.33;79.30;100996.00;5028072;28;20483;-80
2021/01/12 10:44:09;;;;;;;9.85;0.98;;;;;;;6.02;79.71;100992.91;5028025;28;20033;-78
2021/01/12 10:46:35;;;;;;;10.88;1.55;;;;;;;5.76;81.25;101004.47;5025329;28;20036;-79
2021/01/12 10:49:00;;;;;;;8.13;1.30;;;;;;;6.09;83.47;101010.22;5024481;28;20025;-78
2021/01/12 10:51:26;;;;;;;13.02;1.40;;;;;;;7.95;75.26;100987.13;5026063;28;20032;-80
2021/01/12 10:53:51;;;;;;;7.10;0.90;;;;;;;9.38;70.39;100989.41;5025371;28;20025;-78
2021/01/12 10:56:16;;;;;;;7.53;0.90;;;;;;;10.07;66.83;100991.44;5028806;28;20034;-80
2021/01/12 10:58:42;;;;;;;7.97;0.95;;;;;;;10.53;64.27;100991.91;5025554;28;20029;-78
2021/01/12 11:01:08;;;;;;;6.78;1.10;;;;;;;11.48;62.80;101009.66;5025418;28;20036;-79
2021/01/12 11:03:34;;;;;;;5.60;0.98;;;;;;;11.82;61.28;101003.56;5025546;28;20036;-80
2021/01/12 11:05:59;;;;;;;7.50;1.20;;;;;;;11.53;60.09;101010.63;5026578;28;20043;-79
2021/01/12 11:08:25;;;;;;;11.23;1.03;;;;;;;11.15;60.10;101005.47;5024589;28;20033;-81
2021/01/12 11:10:51;;;;;;;12.23;1.42;;;;;;;9.82;63.25;101010.44;5025482;28;20354;-80
2021/01/12 11:13:17;;;;;;;;;;;;;;;8.24;65.43;101027.44;5023486;28;20075;-79
2021/01/12 11:15:44;;;;;;;6.57;1.20;;;;;;;7.31;69.12;101023.91;5026369;28;19920;-78
2021/01/12 11:18:09;;;;;;;8.73;1.60;;;;;;;6.99;71.81;101032.81;5026980;28;20037;-80
2021/01/12 11:20:35;;;;;;;6.30;1.67;;;;;;;6.65;70.37;101043.31;5024765;28;20117;-78
2021/01/12 11:23:00;;;;;;;14.90;1.30;;;;;;;6.76;67.95;101042.06;5025767;28;20399;-80
2021/01/12 11:25:26;;;;;;;7.10;1.33;;;;;;;8.07;65.05;101029.38;5025164;28;20025;-79
2021/01/12 11:27:51;;;;;;;5.63;1.08;;;;;;;8.87;60.65;101035.63;5031548;28;20303;-79
2021/01/12 11:30:17;;;;;;;6.93;1.30;;;;;;;9.41;59.85;101033.09;5044227;28;20025;-79